createdAt,value
2023-03-22T08:06:32.824Z,100205.41
2023-03-22T08:11:38.124Z,100183.44
2023-03-22T08:16:44.580Z,100167.22
2023-03-22T08:21:52.330Z,100168.47
2023-03-22T08:26:57.753Z,100168.47
2023-03-22T08:32:04.071Z,100160.81
2023-03-22T08:37:12.436Z,100159.16
2023-03-22T08:42:17.922Z,100166.88
2023-03-22T08:47:23.044Z,100186.19
2023-03-22T08:52:31.040Z,100182.78
2023-03-22T08:57:38.673Z,100173.28
2023-03-22T09:02:44.070Z,100189.16
2023-03-22T09:07:55.663Z,100201.06
2023-03-22T09:13:01.708Z,100196.81
2023-03-22T09:18:06.997Z,100190.50
2023-03-22T09:23:15.523Z,100177.53
2023-03-22T09:28:20.803Z,100163.78
2023-03-22T09:33:26.203Z,100167.66
2023-03-22T09:38:36.453Z,100160.81
2023-03-22T09:43:43.106Z,100154.94
2023-03-22T09:48:49.505Z,100153.50
2023-03-22T09:53:57.726Z,100154.44
2023-03-22T09:59:08.439Z,100173.28
2023-03-22T10:04:43.997Z,100182.03
2023-03-22T10:09:56.363Z,100174.06
2023-03-22T10:15:07.570Z,100172.97
2023-03-22T10:20:22.702Z,100171.84
2023-03-22T10:25:36.650Z,100173.19
2023-03-22T10:30:42.437Z,100175.28
2023-03-22T10:35:48.057Z,100161.53
2023-03-22T10:40:56.447Z,100156.47
2023-03-22T10:46:01.660Z,100160.16
2023-03-22T10:51:07.476Z,100171.03
2023-03-22T10:56:18.932Z,100169.03
2023-03-22T11:01:31.577Z,100173.75
2023-03-22T11:06:37.595Z,100175.31
2023-03-22T11:11:54.590Z,100168.66
2023-03-22T11:17:01.977Z,100178.38
2023-03-22T11:22:10.140Z,100158.41
2023-03-22T11:27:22.547Z,100179.44
2023-03-22T11:32:30.689Z,100171.19
2023-03-22T11:37:35.789Z,100178.03
2023-03-22T11:42:43.762Z,100168.63
2023-03-22T11:47:49.300Z,100166.03
2023-03-22T11:52:54.532Z,100173.16
2023-03-22T11:58:03.974Z,100152.13
2023-03-22T12:03:13.947Z,100155.06
2023-03-22T12:08:22.957Z,100147.47
2023-03-22T12:13:35.368Z,100163.97
2023-03-22T12:18:44.687Z,100151.41
2023-03-22T12:23:50.029Z,100154.44
2023-03-22T12:28:59.456Z,100159.19
2023-03-22T12:34:09.187Z,100155.25
2023-03-22T12:39:20.479Z,100145.44
2023-03-22T12:44:30.052Z,100149.25
2023-03-22T12:49:40.496Z,100151.59
2023-03-22T12:54:45.694Z,100139.69
2023-03-22T12:59:55.378Z,100140.81
2023-03-22T13:05:01.087Z,100132.50
2023-03-22T13:10:53.195Z,100130.56
2023-03-22T13:16:16.336Z,100131.97
2023-03-22T13:21:22.395Z,100134.16
2023-03-22T13:26:35.157Z,100139.00
2023-03-22T13:31:45.455Z,100134.59
2023-03-22T13:36:56.433Z,100124.84
2023-03-22T13:42:10.278Z,100118.38
2023-03-22T13:47:38.182Z,100122.72
2023-03-22T13:52:45.159Z,100107.03
2023-03-22T13:57:58.970Z,100100.59
2023-03-22T14:03:09.953Z,100089.63
2023-03-22T14:08:23.789Z,100095.94
2023-03-22T14:13:34.805Z,100094.97
2023-03-22T14:18:45.976Z,100090.56
2023-03-22T14:54:32.845Z,100096.38
2023-03-22T14:59:38.172Z,100100.94
2023-03-22T15:04:46.201Z,100096.66
2023-03-22T15:09:52.961Z,100071.41
2023-03-22T15:14:58.109Z,100064.13
2023-03-22T15:20:07.771Z,100065.38
2023-03-22T15:25:15.159Z,100060.59
2023-03-22T15:30:22.547Z,100064.72
2023-03-22T15:35:30.501Z,100065.78
2023-03-22T15:40:41.255Z,100052.88
2023-03-22T15:46:02.654Z,100047.22
2023-03-22T15:51:10.553Z,100040.41
2023-03-22T15:56:35.067Z,100046.38
2023-03-22T16:01:46.060Z,100032.63
2023-03-22T16:06:54.138Z,100038.44
2023-03-22T16:11:59.298Z,100029.91
2023-03-22T16:17:04.500Z,100036.00
2023-03-22T16:22:13.475Z,100036.13
2023-03-22T16:27:20.736Z,100048.44
2023-03-22T16:32:27.624Z,100040.03
2023-03-22T16:37:36.446Z,100047.09
2023-03-22T16:42:41.644Z,100031.00
2023-03-22T16:47:47.354Z,100027.88
2023-03-22T16:52:55.204Z,100025.63
2023-03-22T16:58:00.468Z,100037.06
2023-03-22T17:03:07.944Z,100041.50
2023-03-22T17:08:20.841Z,100028.59
2023-03-22T17:13:26.171Z,100023.69
2023-03-22T17:18:31.500Z,100036.78
2023-03-22T17:23:39.407Z,100037.63
2023-03-22T17:28:44.598Z,100036.06
2023-03-22T17:33:50.142Z,100019.69
2023-03-22T17:39:17.900Z,100018.84
2023-03-22T17:44:23.547Z,100037.09
2023-03-22T17:49:29.117Z,100031.91
2023-03-22T17:59:49.030Z,100032.28
2023-03-22T18:04:54.262Z,100035.00
2023-03-22T18:10:07.599Z,100028.16
2023-03-22T18:15:15.320Z,100023.97
2023-03-22T18:20:39.774Z,100021.53
2023-03-22T18:25:50.539Z,100031.09
2023-03-22T18:30:55.851Z,100032.00
2023-03-22T18:36:01.339Z,100026.81
2023-03-22T18:46:26.041Z,100024.50
2023-03-22T18:51:35.078Z,100025.56
2023-03-22T18:56:51.974Z,100028.38
2023-03-22T19:02:09.786Z,100026.66
2023-03-22T19:07:35.667Z,100014.69
2023-03-22T19:12:49.265Z,100010.28
2023-03-22T19:17:54.654Z,100009.38
2023-03-22T19:22:59.812Z,99998.19
2023-03-22T19:28:08.994Z,100001.59
2023-03-22T19:33:30.819Z,99987.94
2023-03-22T19:38:39.575Z,99979.41
2023-03-22T19:43:47.524Z,99973.16
2023-03-22T19:48:57.685Z,99963.69
2023-03-22T19:59:20.450Z,99965.47
2023-03-22T20:04:25.922Z,99969.75
2023-03-22T20:09:31.796Z,99961.97
2023-03-22T20:14:39.572Z,99951.63
2023-03-22T20:19:44.751Z,99950.94
2023-03-22T20:24:50.054Z,99940.00
2023-03-22T20:29:58.372Z,99951.44
2023-03-22T20:35:04.132Z,99946.53
2023-03-22T20:40:11.986Z,99939.66
2023-03-22T20:45:19.962Z,99938.97
2023-03-22T20:50:25.303Z,99942.56
2023-03-22T20:55:30.571Z,99940.88
2023-03-22T21:00:38.491Z,99939.31
2023-03-22T21:05:44.549Z,99925.84
2023-03-22T21:10:49.757Z,99924.19
2023-03-22T21:15:58.266Z,99914.78
2023-03-22T21:21:03.714Z,99907.13
2023-03-22T21:26:09.459Z,99900.91
2023-03-22T21:31:18.641Z,99899.75
2023-03-22T21:36:24.761Z,99896.28
2023-03-22T21:41:30.277Z,99889.28
2023-03-22T21:46:46.122Z,99896.13
2023-03-22T21:51:52.326Z,99875.44
2023-03-22T21:56:57.614Z,99873.72
2023-03-22T22:02:05.980Z,99867.66
2023-03-22T22:07:13.608Z,99872.81
2023-03-22T22:12:19.333Z,99886.63
2023-03-22T22:17:27.660Z,99883.16
2023-03-22T22:22:33.174Z,99885.78
2023-03-22T22:27:38.394Z,99866.78
2023-03-22T22:32:47.138Z,99854.66
2023-03-22T22:37:52.368Z,99853.88
2023-03-22T22:42:58.057Z,99860.78
2023-03-22T22:48:06.216Z,99854.78
2023-03-22T22:53:11.846Z,99853.09
2023-03-22T22:58:17.614Z,99854.78
2023-03-22T23:03:26.509Z,99860.75
